Time;durP1;ratioP1;P1;durP2;ratioP2;P2;SDS_P1;SDS_P2;PMS_P1;PMS_P2;Temp;Humidity;BMP_temperature;BMP_pressure;BME280_temperature;BME280_humidity;BME280_pressure;Samples;Min_cycle;Max_cycle;Signal;HPM_P1;HPM_P2
2023/08/03 00:00:30;;;;;;;;;;;;;;;-140.72;100.00;52780.47;5092744;28;19966;-67
2023/08/03 00:02:55;;;;;;;;;;;;;;;-140.72;100.00;52717.56;5085369;28;19927;-67
2023/08/03 00:05:21;;;;;;;;;;;;;;;-140.72;100.00;52735.81;5093698;28;19968;-67
2023/08/03 00:07:47;;;;;;;;;;;;;;;-140.72;100.00;52745.97;5093722;28;19923;-67
2023/08/03 00:10:12;;;;;;;;;;;;;;;-140.72;100.00;52727.72;5092801;28;19916;-67
2023/08/03 00:12:38;;;;;;;;;;;;;;;-140.72;100.00;52760.19;5075737;28;20335;-67
2023/08/03 00:15:03;;;;;;;;;;;;;;;-140.72;100.00;52721.63;5093336;28;19931;-67
2023/08/03 00:17:28;;;;;;;;;;;;;;;-140.72;100.00;52723.66;5086908;28;19923;-67
2023/08/03 00:19:54;;;;;;;;;;;;;;;-140.72;100.00;52758.16;5091814;28;20067;-67
2023/08/03 00:22:19;;;;;;;;;;;;;;;-140.72;100.00;52739.88;5088696;28;19959;-67
2023/08/03 00:24:44;;;;;;;;;;;;;;;-140.72;100.00;52727.72;5105692;28;19923;-67
2023/08/03 00:27:10;;;;;;;;;;;;;;;-140.72;100.00;52725.69;5093256;28;19920;-67
2023/08/03 00:29:35;;;;;;;;;;;;;;;-140.72;100.00;52727.72;5093043;28;20380;-67
2023/08/03 00:32:01;;;;;;;;;;;;;;;-140.72;100.00;52703.34;5093215;28;19924;-67
2023/08/03 00:34:27;;;;;;;;;;;;;;;-140.72;100.00;52705.38;5082560;28;19943;-67
2023/08/03 00:36:53;;;;;;;;;;;;;;;-140.72;100.00;52737.84;5085094;28;20274;-67
2023/08/03 00:39:18;;;;;;;;;;;;;;;-140.72;100.00;52685.09;5093185;28;19924;-67
2023/08/03 00:41:43;;;;;;;;;;;;;;;-140.72;100.00;52691.19;5085616;28;19916;-67
2023/08/03 00:44:09;;;;;;;;;;;;;;;-140.72;100.00;52737.84;5096898;28;19920;-67
2023/08/03 00:46:34;;;;;;;;;;;;;;;-140.72;100.00;52760.19;5088864;28;19916;-67
2023/08/03 00:48:59;;;;;;;;;;;;;;;-140.72;100.00;52731.75;5093108;28;19916;-67
2023/08/03 00:51:25;;;;;;;;;;;;;;;-140.72;100.00;52739.88;5080018;28;19995;-67
2023/08/03 00:53:50;;;;;;;;;;;;;;;-140.72;100.00;52752.06;5088494;28;19920;-67
2023/08/03 00:56:16;;;;;;;;;;;;;;;-140.72;100.00;52729.75;5093315;28;19923;-67
2023/08/03 00:58:42;;;;;;;;;;;;;;;-140.72;100.00;52731.75;5084056;28;20365;-67
2023/08/03 01:01:08;;;;;;;;;;;;;;;-140.72;100.00;52739.88;5082315;28;19969;-66
2023/08/03 01:03:33;;;;;;;;;;;;;;;-140.72;100.00;52737.84;5084910;28;19924;-67
2023/08/03 01:05:58;;;;;;;;;;;;;;;-140.72;100.00;52748.00;5086180;28;20293;-67
2023/08/03 01:08:24;;;;;;;;;;;;;;;-140.72;100.00;52733.78;5088587;28;20336;-68
2023/08/03 01:10:49;;;;;;;;;;;;;;;-140.72;100.00;52739.88;5089837;28;20297;-67
2023/08/03 01:13:15;;;;;;;;;;;;;;;-140.72;100.00;52715.53;5091647;28;20022;-67
2023/08/03 01:15:40;;;;;;;;;;;;;;;-140.72;100.00;52729.75;5087241;28;19920;-67
2023/08/03 01:18:05;;;;;;;;;;;;;;;-140.72;100.00;52719.59;5091502;28;19916;-67
2023/08/03 01:20:32;;;;;;;;;;;;;;;-140.72;100.00;52741.91;5081761;28;20007;-67
2023/08/03 01:22:57;;;;;;;;;;;;;;;-140.72;100.00;52752.06;5085389;28;19916;-67
2023/08/03 01:25:23;;;;;;;;;;;;;;;-140.72;100.00;52739.88;5091221;28;20337;-68
2023/08/03 01:27:49;;;;;;;;;;;;;;;-140.72;100.00;52729.75;5091261;28;19916;-68
2023/08/03 01:30:15;;;;;;;;;;;;;;;-140.72;100.00;52733.78;5091565;28;20286;-67
2023/08/03 01:32:40;;;;;;;;;;;;;;;-140.72;100.00;52727.72;5081870;28;19924;-67
2023/08/03 01:35:06;;;;;;;;;;;;;;;-140.72;100.00;52737.84;5082987;28;19924;-67
2023/08/03 01:37:35;;;;;;;;;;;;;;;-140.72;100.00;52762.22;5091591;28;19969;-67
2023/08/03 01:40:00;;;;;;;;;;;;;;;-140.72;100.00;52727.72;5080784;28;19917;-67
2023/08/03 01:42:25;;;;;;;;;;;;;;;-140.72;100.00;52723.66;5091189;28;20281;-67
2023/08/03 01:44:52;;;;;;;;;;;;;;;-140.72;100.00;52739.88;5091977;28;20461;-67
2023/08/03 01:47:18;;;;;;;;;;;;;;;-140.72;100.00;52719.59;5091865;28;19916;-67
2023/08/03 01:49:43;;;;;;;;;;;;;;;-140.72;100.00;52711.47;5096302;28;19916;-67
2023/08/03 01:52:08;;;;;;;;;;;;;;;-140.72;100.00;52752.06;5091685;28;19978;-67
2023/08/03 01:54:33;;;;;;;;;;;;;;;-140.72;100.00;52711.47;5096366;28;19920;-67
2023/08/03 01:56:59;;;;;;;;;;;;;;;-140.72;100.00;52750.03;5090467;28;20374;-67
2023/08/03 01:59:24;;;;;;;;;;;;;;;-140.72;100.00;52735.81;5096587;28;19916;-68
2023/08/03 02:01:49;;;;;;;;;;;;;;;-140.72;100.00;52723.66;5089930;28;19917;-67
2023/08/03 02:04:14;;;;;;;;;;;;;;;-140.72;100.00;52729.75;5095766;28;20006;-67
2023/08/03 02:06:40;;;;;;;;;;;;;;;-140.72;100.00;52748.00;5090678;28;20309;-67
2023/08/03 02:09:05;;;;;;;;;;;;;;;-140.72;100.00;52739.88;5064154;28;19916;-67
2023/08/03 02:11:30;;;;;;;;;;;;;;;-140.72;100.00;52743.94;5088755;28;19920;-67
2023/08/03 02:13:56;;;;;;;;;;;;;;;-140.72;100.00;52764.25;5076104;28;19916;-67
2023/08/03 02:16:21;;;;;;;;;;;;;;;-140.72;100.00;52727.72;5088819;28;19923;-67
2023/08/03 02:18:46;;;;;;;;;;;;;;;-140.72;100.00;52770.31;5095098;28;20018;-67
2023/08/03 02:21:12;;;;;;;;;;;;;;;-140.72;100.00;52733.78;5094219;28;20414;-67
2023/08/03 02:23:37;;;;;;;;;;;;;;;-140.72;100.00;52725.69;5094516;28;19916;-67
2023/08/03 02:26:02;;;;;;;;;;;;;;;-140.72;100.00;52721.63;5095068;28;19999;-67
2023/08/03 02:28:28;;;;;;;;;;;;;;;-140.72;100.00;52760.19;5088191;28;19916;-67
2023/08/03 02:30:53;;;;;;;;;;;;;;;-140.72;100.00;52715.53;5095413;28;19923;-67
2023/08/03 02:33:18;;;;;;;;;;;;;;;-140.72;100.00;52766.25;5087324;28;19978;-68
2023/08/03 02:35:44;;;;;;;;;;;;;;;-140.72;100.00;52743.94;5089597;28;19955;-67
2023/08/03 02:38:10;;;;;;;;;;;;;;;-140.72;100.00;52741.91;5088033;28;19939;-67
2023/08/03 02:40:35;;;;;;;;;;;;;;;-140.72;100.00;52774.38;5094500;28;19917;-67
2023/08/03 02:43:02;;;;;;;;;;;;;;;-140.72;100.00;52731.75;5094165;28;19939;-67
2023/08/03 02:45:27;;;;;;;;;;;;;;;-140.72;100.00;52741.91;5094357;28;19969;-67
2023/08/03 02:47:55;;;;;;;;;;;;;;;-140.72;100.00;52705.38;5079513;28;19915;-67
2023/08/03 02:50:20;;;;;;;;;;;;;;;-140.72;100.00;52756.13;5088008;28;19973;-66
2023/08/03 02:52:46;;;;;;;;;;;;;;;-140.72;100.00;52778.44;5086250;28;20003;-66
2023/08/03 02:55:11;;;;;;;;;;;;;;;-140.72;100.00;52794.69;5091800;28;19916;-67
2023/08/03 02:57:36;;;;;;;;;;;;;;;-140.72;100.00;52687.13;5091551;28;19948;-68
2023/08/03 03:00:01;;;;;;;;;;;;;;;-140.72;100.00;52752.06;5086270;28;20371;-67
2023/08/03 03:02:27;;;;;;;;;;;;;;;-140.72;100.00;52723.66;5088360;28;19960;-67
2023/08/03 03:04:52;;;;;;;;;;;;;;;-140.72;100.00;52756.13;5084203;28;20366;-67
2023/08/03 03:07:17;;;;;;;;;;;;;;;-140.72;100.00;52762.22;5070525;28;19939;-66
2023/08/03 03:09:42;;;;;;;;;;;;;;;-140.72;100.00;52697.28;5089637;28;19963;-67
2023/08/03 03:12:08;;;;;;;;;;;;;;;-140.72;100.00;52731.75;5085987;28;19964;-67
2023/08/03 03:14:35;;;;;;;;;;;;;;;-140.72;100.00;52743.94;5078588;28;20365;-67
2023/08/03 03:17:00;;;;;;;;;;;;;;;-140.72;100.00;52752.06;5096267;28;19916;-67
2023/08/03 03:19:25;;;;;;;;;;;;;;;-140.72;100.00;52739.88;5092056;28;20351;-67
2023/08/03 03:21:51;;;;;;;;;;;;;;;-140.72;100.00;52743.94;5079665;28;19965;-67
2023/08/03 03:24:16;;;;;;;;;;;;;;;-140.72;100.00;52756.13;5095426;28;20409;-67
2023/08/03 03:26:41;;;;;;;;;;;;;;;-140.72;100.00;52756.13;5090898;28;20405;-67
2023/08/03 03:29:06;;;;;;;;;;;;;;;-140.72;100.00;52739.88;5075224;28;19955;-66
2023/08/03 03:31:32;;;;;;;;;;;;;;;-140.72;100.00;52748.00;5073346;28;20382;-67
2023/08/03 03:33:57;;;;;;;;;;;;;;;-140.72;100.00;52756.13;5086547;28;19941;-67
2023/08/03 03:36:22;;;;;;;;;;;;;;;-140.72;100.00;52743.94;5095346;28;19934;-67
2023/08/03 03:38:47;;;;;;;;;;;;;;;-140.72;100.00;52711.47;5095105;28;19916;-67
2023/08/03 03:41:13;;;;;;;;;;;;;;;-140.72;100.00;52752.06;5089893;28;19923;-69
2023/08/03 03:43:38;;;;;;;;;;;;;;;-140.72;100.00;52731.75;5084917;28;20324;-67
2023/08/03 03:46:03;;;;;;;;;;;;;;;-140.72;100.00;52733.78;5076420;28;19923;-67
2023/08/03 03:48:28;;;;;;;;;;;;;;;-140.72;100.00;52756.13;5089275;28;20259;-67
2023/08/03 03:50:54;;;;;;;;;;;;;;;-140.72;100.00;52760.19;5082245;28;19916;-67
2023/08/03 03:53:19;;;;;;;;;;;;;;;-140.72;100.00;52743.94;5094638;28;19916;-67
2023/08/03 03:55:44;;;;;;;;;;;;;;;-140.72;100.00;52737.84;5099543;28;20349;-69
2023/08/03 03:58:10;;;;;;;;;;;;;;;-140.72;100.00;52758.16;5085963;28;20590;-67
2023/08/03 04:00:39;;;;;;;;;;;;;;;-140.72;100.00;52743.94;5087311;28;19920;-67
2023/08/03 04:03:05;;;;;;;;;;;;;;;-140.72;100.00;52752.06;5075438;28;19920;-67
2023/08/03 04:05:30;;;;;;;;;;;;;;;-140.72;100.00;52739.88;5078431;28;20120;-68
2023/08/03 04:07:55;;;;;;;;;;;;;;;-140.72;100.00;52754.09;5094583;28;19916;-68
2023/08/03 04:10:20;;;;;;;;;;;;;;;-140.72;100.00;52768.28;5081076;28;19917;-68
2023/08/03 04:12:46;;;;;;;;;;;;;;;-140.72;100.00;52756.13;5086156;28;19916;-68
2023/08/03 04:15:11;;;;;;;;;;;;;;;-140.72;100.00;52770.31;5089089;28;19939;-68
2023/08/03 04:17:38;;;;;;;;;;;;;;;-140.72;100.00;52727.72;5093971;28;19923;-68
2023/08/03 04:20:03;;;;;;;;;;;;;;;-140.72;100.00;52725.69;5092672;28;19964;-68
2023/08/03 04:22:29;;;;;;;;;;;;;;;-140.72;100.00;52760.19;5065753;28;19916;-67
2023/08/03 04:24:54;;;;;;;;;;;;;;;-140.72;100.00;52745.97;5077992;28;19917;-68
2023/08/03 04:27:19;;;;;;;;;;;;;;;-140.72;100.00;52772.34;5083542;28;19942;-68
2023/08/03 04:29:44;;;;;;;;;;;;;;;-140.72;100.00;52788.59;5081012;28;19973;-68
2023/08/03 04:32:10;;;;;;;;;;;;;;;-140.72;100.00;52764.25;5094397;28;19924;-68
2023/08/03 04:34:35;;;;;;;;;;;;;;;-140.72;100.00;52756.13;5078248;28;20392;-68
2023/08/03 04:37:00;;;;;;;;;;;;;;;-140.72;100.00;52764.25;5065596;28;19920;-67
2023/08/03 04:39:25;;;;;;;;;;;;;;;-140.72;100.00;52764.25;5080646;28;20373;-68
2023/08/03 04:41:51;;;;;;;;;;;;;;;-140.72;100.00;52750.03;5094408;28;20278;-68
2023/08/03 04:44:16;;;;;;;;;;;;;;;-140.72;100.00;52756.13;5093862;28;19968;-68
2023/08/03 04:46:41;;;;;;;;;;;;;;;-140.72;100.00;52739.88;5091638;28;19955;-68
2023/08/03 04:49:10;;;;;;;;;;;;;;;-140.72;100.00;52717.56;5089930;28;19916;-68
2023/08/03 04:51:35;;;;;;;;;;;;;;;-140.72;100.00;52758.16;5098864;28;20304;-68
2023/08/03 04:54:00;;;;;;;;;;;;;;;-140.72;100.00;52762.22;5090192;28;20011;-68
2023/08/03 04:56:26;;;;;;;;;;;;;;;-140.72;100.00;52772.34;5105030;28;20436;-68
2023/08/03 04:58:51;;;;;;;;;;;;;;;-140.72;100.00;52756.13;5093862;28;19923;-68
2023/08/03 05:01:16;;;;;;;;;;;;;;;-140.72;100.00;52776.41;5094196;28;19965;-68
2023/08/03 05:03:41;;;;;;;;;;;;;;;-140.72;100.00;52725.69;5080189;28;19943;-69
2023/08/03 05:06:06;;;;;;;;;;;;;;;-140.72;100.00;52768.28;5094010;28;19954;-68
2023/08/03 05:08:32;;;;;;;;;;;;;;;-140.72;100.00;52784.53;5094630;28;19960;-68
2023/08/03 05:10:57;;;;;;;;;;;;;;;-140.72;100.00;52752.06;5085546;28;20420;-68
2023/08/03 05:13:22;;;;;;;;;;;;;;;-140.72;100.00;52756.13;5087394;28;19916;-68
2023/08/03 05:15:47;;;;;;;;;;;;;;;-140.72;100.00;52731.75;5076461;28;19920;-68
2023/08/03 05:18:13;;;;;;;;;;;;;;;-140.72;100.00;52770.31;5076299;28;19931;-68
2023/08/03 05:20:38;;;;;;;;;;;;;;;-140.72;100.00;52733.78;5088198;28;19916;-68
2023/08/03 05:23:05;;;;;;;;;;;;;;;-140.72;100.00;52792.66;5076763;28;19920;-68
2023/08/03 05:25:30;;;;;;;;;;;;;;;-140.72;100.00;52739.88;5094945;28;20010;-68
2023/08/03 05:27:55;;;;;;;;;;;;;;;-140.72;100.00;52760.19;5077670;28;20006;-68
2023/08/03 05:30:20;;;;;;;;;;;;;;;-140.72;100.00;52743.94;5097501;28;19916;-68
2023/08/03 05:32:46;;;;;;;;;;;;;;;-140.72;100.00;52770.31;5090842;28;19920;-68
2023/08/03 05:35:12;;;;;;;;;;;;;;;-140.72;100.00;52772.34;5083956;28;19955;-68
2023/08/03 05:37:37;;;;;;;;;;;;;;;-140.72;100.00;52812.94;5085558;28;20366;-68
2023/08/03 05:40:03;;;;;;;;;;;;;;;-140.72;100.00;52788.59;5078837;28;20010;-68
2023/08/03 05:42:34;;;;;;;;;;;;;;;-140.72;100.00;52774.38;5090988;28;20373;-68
2023/08/03 05:44:59;;;;;;;;;;;;;;;-140.72;100.00;52750.03;5077311;28;20005;-68
2023/08/03 05:47:25;;;;;;;;;;;;;;;-140.72;100.00;52768.28;5096506;28;20381;-68
2023/08/03 05:49:50;;;;;;;;;;;;;;;-140.72;100.00;52810.91;5097495;28;19926;-68
2023/08/03 05:52:15;;;;;;;;;;;;;;;-140.72;100.00;52792.66;5083933;28;19916;-68
2023/08/03 05:54:40;;;;;;;;;;;;;;;-140.72;100.00;52754.09;5096739;28;20292;-68
2023/08/03 05:57:10;;;;;;;;;;;;;;;-140.72;100.00;52752.06;5091011;28;19916;-69
2023/08/03 05:59:35;;;;;;;;;;;;;;;-140.72;100.00;52756.13;5089423;28;19916;-68
2023/08/03 06:02:00;;;;;;;;;;;;;;;-140.72;100.00;52784.53;5082251;28;19921;-68
2023/08/03 06:04:26;;;;;;;;;;;;;;;-140.72;100.00;52760.19;5097173;28;19916;-68
2023/08/03 06:06:51;;;;;;;;;;;;;;;-140.72;100.00;52764.25;5096925;28;19941;-70
2023/08/03 06:09:17;;;;;;;;;;;;;;;-140.72;100.00;52760.19;5089719;28;19916;-68
2023/08/03 06:11:43;;;;;;;;;;;;;;;-140.72;100.00;52733.78;5071849;28;19916;-68
2023/08/03 06:14:12;;;;;;;;;;;;;;;-140.72;100.00;52699.31;5077236;28;20390;-68
2023/08/03 06:16:37;;;;;;;;;;;;;;;-140.72;100.00;52774.38;5090598;28;19916;-68
2023/08/03 06:19:05;;;;;;;;;;;;;;;-140.72;100.00;52756.13;5085005;28;20385;-68
2023/08/03 06:21:30;;;;;;;;;;;;;;;-140.72;100.00;52756.13;5095523;28;20067;-68
2023/08/03 06:23:57;;;;;;;;;;;;;;;-140.72;100.00;52788.59;5079087;28;19997;-69
2023/08/03 06:26:23;;;;;;;;;;;;;;;-140.72;100.00;52731.75;5080669;28;19941;-68
2023/08/03 06:28:53;;;;;;;;;;;;;;;-140.72;100.00;52719.59;5071020;28;19917;-68
2023/08/03 06:31:21;;;;;;;;;;;;;;;-140.72;100.00;52743.94;5089816;28;19920;-68
2023/08/03 06:33:47;;;;;;;;;;;;;;;-140.72;100.00;52739.88;5079378;28;19916;-68
2023/08/03 06:36:25;;;;;;;;;;;;;;;-140.72;100.00;52733.78;5092914;28;19923;-68
2023/08/03 06:38:50;;;;;;;;;;;;;;;-140.72;100.00;52739.88;5096335;28;19959;-68
2023/08/03 06:41:15;;;;;;;;;;;;;;;-140.72;100.00;52731.75;5067235;28;19955;-68
2023/08/03 06:43:41;;;;;;;;;;;;;;;-140.72;100.00;52737.84;5096823;28;19955;-68
2023/08/03 06:46:06;;;;;;;;;;;;;;;-140.72;100.00;52711.47;5096466;28;20355;-68
2023/08/03 06:48:34;;;;;;;;;;;;;;;-140.72;100.00;52719.59;5105767;28;19922;-69
2023/08/03 06:51:01;;;;;;;;;;;;;;;-140.72;100.00;52707.41;5091463;28;19916;-67
2023/08/03 06:53:27;;;;;;;;;;;;;;;-140.72;100.00;52756.13;5070321;28;19921;-68
2023/08/03 06:55:52;;;;;;;;;;;;;;;-140.72;100.00;52727.72;5080607;28;19917;-68
2023/08/03 06:58:17;;;;;;;;;;;;;;;-140.72;100.00;52745.97;5086281;28;20369;-68
2023/08/03 07:00:44;;;;;;;;;;;;;;;-140.72;100.00;52733.78;5085499;28;20380;-68
2023/08/03 07:03:09;;;;;;;;;;;;;;;-140.72;100.00;52727.72;5106551;28;19975;-68
2023/08/03 07:05:35;;;;;;;;;;;;;;;-140.72;100.00;52721.63;5082508;28;19952;-68
2023/08/03 07:08:00;;;;;;;;;;;;;;;-140.72;100.00;52725.69;5094726;28;20368;-67
2023/08/03 07:10:25;;;;;;;;;;;;;;;-140.72;100.00;52705.38;5094464;28;20303;-68
2023/08/03 07:12:51;;;;;;;;;;;;;;;-140.72;100.00;52715.53;5085345;28;20577;-68
2023/08/03 07:15:16;;;;;;;;;;;;;;;-140.72;100.00;52719.59;5093256;28;19916;-68
2023/08/03 07:17:42;;;;;;;;;;;;;;;-140.72;100.00;52679.00;5095954;28;20365;-68
2023/08/03 07:20:08;;;;;;;;;;;;;;;-140.72;100.00;52705.38;5095370;28;20369;-68
2023/08/03 07:22:34;;;;;;;;;;;;;;;-140.72;100.00;52717.56;5093452;28;19922;-68
2023/08/03 07:25:00;;;;;;;;;;;;;;;-140.72;100.00;52709.44;5079533;28;20027;-68
2023/08/03 07:27:25;;;;;;;;;;;;;;;-140.72;100.00;52652.63;5059026;28;19960;-68
2023/08/03 07:29:50;;;;;;;;;;;;;;;-140.72;100.00;52703.34;5092183;28;19975;-68
2023/08/03 07:32:15;;;;;;;;;;;;;;;-140.72;100.00;52656.69;5091808;28;20346;-69
2023/08/03 07:34:41;;;;;;;;;;;;;;;-140.72;100.00;52689.16;5092233;28;19986;-68
2023/08/03 07:37:06;;;;;;;;;;;;;;;-140.72;100.00;52644.50;5083822;28;19960;-69
2023/08/03 07:39:31;;;;;;;;;;;;;;;-140.72;100.00;52656.69;5084814;28;20027;-68
2023/08/03 07:41:57;;;;;;;;;;;;;;;-140.72;100.00;52691.19;5083463;28;19919;-69
2023/08/03 07:44:22;;;;;;;;;;;;;;;-140.72;100.00;52691.19;5083016;28;19916;-69
2023/08/03 07:46:47;;;;;;;;;;;;;;;-140.72;100.00;52697.28;5080134;28;19916;-69
2023/08/03 07:49:13;;;;;;;;;;;;;;;-140.72;100.00;52668.84;5088918;28;19916;-69
2023/08/03 07:51:38;;;;;;;;;;;;;;;-140.72;100.00;52687.13;5075409;28;19916;-69
2023/08/03 07:54:04;;;;;;;;;;;;;;;-140.72;100.00;52658.72;5076385;28;20274;-69
2023/08/03 07:56:29;;;;;;;;;;;;;;;-140.72;100.00;52668.84;5093921;28;20270;-69
2023/08/03 07:58:54;;;;;;;;;;;;;;;-140.72;100.00;52660.75;5085221;28;19916;-68
2023/08/03 08:01:20;;;;;;;;;;;;;;;-140.72;100.00;52691.19;5092764;28;19919;-68
2023/08/03 08:03:46;;;;;;;;;;;;;;;-140.72;100.00;52676.97;5079048;28;19916;-68
2023/08/03 08:06:13;;;;;;;;;;;;;;;-140.72;100.00;52654.66;5074047;28;19920;-68
2023/08/03 08:08:38;;;;;;;;;;;;;;;-140.72;100.00;52620.16;5092660;28;19923;-68
2023/08/03 08:11:04;;;;;;;;;;;;;;;-140.72;100.00;52693.22;5082962;28;19920;-69
2023/08/03 08:13:29;;;;;;;;;;;;;;;-140.72;100.00;52646.53;5092304;28;20816;-69
2023/08/03 08:16:01;;;;;;;;;;;;;;;-140.72;100.00;52650.59;5093719;28;19916;-69
2023/08/03 08:18:27;;;;;;;;;;;;;;;-140.72;100.00;52583.63;5082742;28;19967;-68
2023/08/03 08:20:56;;;;;;;;;;;;;;;-140.72;100.00;52620.16;5091758;28;19963;-70
2023/08/03 08:23:21;;;;;;;;;;;;;;;-140.72;100.00;52626.25;5091249;28;19959;-69
2023/08/03 08:25:46;;;;;;;;;;;;;;;-140.72;100.00;52622.19;5091232;28;19956;-69
2023/08/03 08:28:12;;;;;;;;;;;;;;;-140.72;100.00;52565.38;5080662;28;19920;-69
2023/08/03 08:30:37;;;;;;;;;;;;;;;-140.72;100.00;52607.97;5089799;28;19916;-69
2023/08/03 08:33:02;;;;;;;;;;;;;;;-140.72;100.00;52553.19;5082150;28;19923;-70
2023/08/03 08:35:27;;;;;;;;;;;;;;;-140.72;100.00;52585.66;5092981;28;19916;-69
2023/08/03 08:37:53;;;;;;;;;;;;;;;-140.72;100.00;52532.91;5078244;28;19955;-69
2023/08/03 08:40:18;;;;;;;;;;;;;;;-140.72;100.00;52553.19;5083526;28;20014;-69
2023/08/03 08:42:50;;;;;;;;;;;;;;;-140.72;100.00;52565.38;5091628;28;20011;-69
2023/08/03 08:45:16;;;;;;;;;;;;;;;-140.72;100.00;52520.72;5082578;28;20301;-69
2023/08/03 08:47:41;;;;;;;;;;;;;;;-140.72;100.00;52480.16;5093030;28;19920;-69
2023/08/03 08:50:06;;;;;;;;;;;;;;;-140.72;100.00;52500.44;5092897;28;19916;-69
2023/08/03 08:52:32;;;;;;;;;;;;;;;-140.72;100.00;52520.72;5093291;28;20358;-69
2023/08/03 08:55:29;;;;;;;;;;;;;;;-140.72;100.00;52500.44;5091384;28;20389;-68
2023/08/03 08:57:56;;;;;;;;;;;;;;;-140.72;100.00;52545.06;5058701;28;20305;-69
2023/08/03 09:00:23;;;;;;;;;;;;;;;-140.72;100.00;52618.13;5090944;28;19920;-67
2023/08/03 09:02:48;;;;;;;;;;;;;;;-140.72;100.00;52662.78;5084157;28;19959;-68
2023/08/03 09:05:13;;;;;;;;;;;;;;;-140.72;100.00;52664.81;5075065;28;19959;-68
2023/08/03 09:07:39;;;;;;;;;;;;;;;-140.72;100.00;52666.84;5085703;28;20022;-68
2023/08/03 09:10:04;;;;;;;;;;;;;;;-140.72;100.00;52664.81;5082112;28;19916;-68
2023/08/03 09:12:30;;;;;;;;;;;;;;;-140.72;100.00;52650.59;5085379;28;19920;-69
2023/08/03 09:14:55;;;;;;;;;;;;;;;-140.72;100.00;52652.63;5090636;28;19916;-69
2023/08/03 09:17:24;;;;;;;;;;;;;;;-140.72;100.00;52662.78;5090625;28;20335;-69
2023/08/03 09:19:50;;;;;;;;;;;;;;;-140.72;100.00;52618.13;5083658;28;19916;-75
2023/08/03 09:22:15;;;;;;;;;;;;;;;-140.72;100.00;52616.09;5089694;28;19924;-69
2023/08/03 09:24:41;;;;;;;;;;;;;;;-140.72;100.00;52559.28;5078803;28;20366;-69
2023/08/03 09:27:06;;;;;;;;;;;;;;;-140.72;100.00;52567.41;5081517;28;19924;-69
2023/08/03 09:29:32;;;;;;;;;;;;;;;-140.72;100.00;52553.19;5085498;28;19962;-69
2023/08/03 09:32:02;;;;;;;;;;;;;;;-140.72;100.00;52506.53;5092105;28;19927;-69
2023/08/03 09:34:40;;;;;;;;;;;;;;;-140.72;100.00;52506.53;5081358;28;19920;-69
2023/08/03 09:37:06;;;;;;;;;;;;;;;-140.72;100.00;52504.50;5081497;28;19922;-69
2023/08/03 09:39:36;;;;;;;;;;;;;;;-140.72;100.00;52569.44;5083232;28;19916;-69
2023/08/03 09:42:05;;;;;;;;;;;;;;;-140.72;100.00;52597.84;5089459;28;19969;-68
2023/08/03 09:44:33;;;;;;;;;;;;;;;-140.72;100.00;52567.41;5076609;28;20378;-69
2023/08/03 09:46:59;;;;;;;;;;;;;;;-140.72;100.00;52597.84;5088418;28;20455;-68
2023/08/03 09:49:25;;;;;;;;;;;;;;;-140.72;100.00;52638.41;5093001;28;19916;-69
2023/08/03 09:51:53;;;;;;;;;;;;;;;-140.72;100.00;52614.06;5092241;28;20018;-69
2023/08/03 09:54:24;;;;;;;;;;;;;;;-140.72;100.00;52607.97;5091852;28;20400;-68
2023/08/03 09:56:53;;;;;;;;;;;;;;;-140.72;100.00;52585.66;5083019;28;19993;-68
2023/08/03 09:59:23;;;;;;;;;;;;;;;-140.72;100.00;52516.66;5086870;28;19923;-69
2023/08/03 10:01:49;;;;;;;;;;;;;;;-140.72;100.00;52449.72;5081572;28;20335;-68
2023/08/03 10:04:15;;;;;;;;;;;;;;;-140.72;100.00;52494.34;5082996;28;19916;-69
2023/08/03 10:06:42;;;;;;;;;;;;;;;-140.72;100.00;52451.72;5083353;28;19924;-68
2023/08/03 10:09:08;;;;;;;;;;;;;;;-140.72;100.00;52508.56;5085046;28;20297;-67
2023/08/03 10:11:46;;;;;;;;;;;;;;;-140.72;100.00;52557.25;5086328;28;19916;-67
2023/08/03 10:14:12;;;;;;;;;;;;;;;-140.72;100.00;52480.16;5087736;28;19920;-67
2023/08/03 10:16:40;;;;;;;;;;;;;;;-140.72;100.00;52461.88;5093854;28;20293;-68
2023/08/03 10:19:06;;;;;;;;;;;;;;;-140.72;100.00;52461.88;5095651;28;19955;-68
2023/08/03 10:21:31;;;;;;;;;;;;;;;-140.72;100.00;52494.34;5084367;28;19955;-68
2023/08/03 10:24:17;;;;;;;;;;;;;;;-140.72;100.00;52534.94;5077541;28;19916;-67
2023/08/03 10:26:43;;;;;;;;;;;;;;;-140.72;100.00;52612.03;5088024;28;19943;-68
2023/08/03 10:29:08;;;;;;;;;;;;;;;-140.72;100.00;52612.03;5090015;28;19924;-68
2023/08/03 10:31:50;;;;;;;;;;;;;;;-140.72;100.00;52607.97;5088645;28;19920;-68
2023/08/03 10:34:23;;;;;;;;;;;;;;;-140.72;100.00;52597.84;5081585;28;19917;-70
2023/08/03 10:36:50;;;;;;;;;;;;;;;-140.72;100.00;52626.25;5087050;28;19916;-68
2023/08/03 10:39:35;;;;;;;;;;;;;;;-140.72;100.00;52648.56;5079313;28;19917;-68
2023/08/03 10:42:17;;;;;;;;;;;;;;;-140.72;100.00;52676.97;5087965;28;20361;-68
2023/08/03 10:44:42;;;;;;;;;;;;;;;-140.72;100.00;52670.88;5096696;28;19923;-68
2023/08/03 10:47:20;;;;;;;;;;;;;;;-140.72;100.00;52664.81;5096293;28;19916;-68
2023/08/03 10:49:49;;;;;;;;;;;;;;;-140.72;100.00;52729.75;5084405;28;20370;-68
2023/08/03 10:52:18;;;;;;;;;;;;;;;-140.72;100.00;52695.25;5076406;28;19916;-67
2023/08/03 10:54:44;;;;;;;;;;;;;;;-140.72;100.00;52739.88;5089091;28;19922;-67
2023/08/03 10:57:10;;;;;;;;;;;;;;;-140.72;100.00;52683.06;5082224;28;19920;-68
2023/08/03 10:59:36;;;;;;;;;;;;;;;-140.72;100.00;52711.47;5096125;28;19923;-68
2023/08/03 11:02:22;;;;;;;;;;;;;;;-140.72;100.00;52723.66;5109138;28;19947;-67
2023/08/03 11:04:51;;;;;;;;;;;;;;;-140.72;100.00;52739.88;5096080;28;20015;-67
2023/08/03 11:07:18;;;;;;;;;;;;;;;-140.72;100.00;52735.81;5082381;28;19962;-68
2023/08/03 11:09:48;;;;;;;;;;;;;;;-140.72;100.00;52737.84;5095704;28;19916;-68
2023/08/03 11:12:16;;;;;;;;;;;;;;;-140.72;100.00;52721.63;5095368;28;19916;-68
2023/08/03 11:14:41;;;;;;;;;;;;;;;-140.72;100.00;52662.78;5084523;28;19924;-68
2023/08/03 11:17:07;;;;;;;;;;;;;;;-140.72;100.00;52725.69;5093846;28;19917;-68
2023/08/03 11:19:36;;;;;;;;;;;;;;;-140.72;100.00;52674.94;5094208;28;20389;-68
2023/08/03 11:22:02;;;;;;;;;;;;;;;-140.72;100.00;52691.19;5082029;28;19924;-68
2023/08/03 11:24:31;;;;;;;;;;;;;;;-140.72;100.00;52699.31;5095681;28;19916;-68
2023/08/03 11:26:56;;;;;;;;;;;;;;;-140.72;100.00;52715.53;5088437;28;19968;-68
2023/08/03 11:29:22;;;;;;;;;;;;;;;-140.72;100.00;52693.22;5100897;28;20390;-67
2023/08/03 11:31:48;;;;;;;;;;;;;;;-140.72;100.00;52709.44;5088827;28;20374;-68
2023/08/03 11:34:14;;;;;;;;;;;;;;;-140.72;100.00;52727.72;5090150;28;19950;-67
2023/08/03 11:36:46;;;;;;;;;;;;;;;-140.72;100.00;52772.34;5095469;28;20297;-68
2023/08/03 11:39:11;;;;;;;;;;;;;;;-140.72;100.00;52697.28;5081743;28;19927;-67
2023/08/03 11:41:37;;;;;;;;;;;;;;;-140.72;100.00;52705.38;5087304;28;19917;-68
2023/08/03 11:44:06;;;;;;;;;;;;;;;-140.72;100.00;52695.25;5075202;28;20392;-68
2023/08/03 11:46:31;;;;;;;;;;;;;;;-140.72;100.00;52723.66;5084075;28;19920;-68
2023/08/03 11:48:57;;;;;;;;;;;;;;;-140.72;100.00;52693.22;5086563;28;19916;-68
2023/08/03 11:51:32;;;;;;;;;;;;;;;-140.72;100.00;52666.84;5092618;28;20329;-68
2023/08/03 11:54:01;;;;;;;;;;;;;;;-140.72;100.00;52652.63;5095665;28;20429;-68
2023/08/03 11:56:26;;;;;;;;;;;;;;;-140.72;100.00;52642.47;5098414;28;19916;-68
2023/08/03 11:58:51;;;;;;;;;;;;;;;-140.72;100.00;52642.47;5093523;28;19977;-69
2023/08/03 12:01:17;;;;;;;;;;;;;;;-140.72;100.00;52642.47;5081344;28;20278;-68
2023/08/03 12:03:42;;;;;;;;;;;;;;;-140.72;100.00;52646.53;5075477;28;19917;-69
2023/08/03 12:06:09;;;;;;;;;;;;;;;-140.72;100.00;52656.69;5094810;28;20007;-68
2023/08/03 12:08:43;;;;;;;;;;;;;;;-140.72;100.00;52638.41;5093967;28;19927;-68
2023/08/03 12:11:09;;;;;;;;;;;;;;;-140.72;100.00;52612.03;5074959;28;19936;-67
2023/08/03 12:13:35;;;;;;;;;;;;;;;-140.72;100.00;52589.72;5090501;28;20305;-67